sensor_id;sensor_type;location;lat;lon;timestamp;pressure;altitude;pressure_sealevel;temperature
24639;BMP180;1641;51.306;12.384;2023-08-17T00:00:24;100451.00;;;23.70
24639;BMP180;1641;51.306;12.384;2023-08-17T00:02:49;100457.00;;;23.80
24639;BMP180;1641;51.306;12.384;2023-08-17T00:05:17;100450.00;;;23.70
24639;BMP180;1641;51.306;12.384;2023-08-17T00:07:46;100425.00;;;23.70
24639;BMP180;1641;51.306;12.384;2023-08-17T00:10:11;100448.00;;;23.80
24639;BMP180;1641;51.306;12.384;2023-08-17T00:12:38;100452.00;;;23.80
24639;BMP180;1641;51.306;12.384;2023-08-17T00:15:04;100450.00;;;23.60
24639;BMP180;1641;51.306;12.384;2023-08-17T00:17:30;100447.00;;;23.30
24639;BMP180;1641;51.306;12.384;2023-08-17T00:19:58;100450.00;;;23.50
24639;BMP180;1641;51.306;12.384;2023-08-17T00:22:30;100444.00;;;23.70
24639;BMP180;1641;51.306;12.384;2023-08-17T00:24:55;100436.00;;;23.90
24639;BMP180;1641;51.306;12.384;2023-08-17T00:27:21;100435.00;;;24.00
24639;BMP180;1641;51.306;12.384;2023-08-17T00:29:46;100426.00;;;24.10
24639;BMP180;1641;51.306;12.384;2023-08-17T00:32:11;100419.00;;;24.00
24639;BMP180;1641;51.306;12.384;2023-08-17T00:34:36;100419.00;;;24.10
24639;BMP180;1641;51.306;12.384;2023-08-17T00:37:02;100412.00;;;23.90
24639;BMP180;1641;51.306;12.384;2023-08-17T00:39:33;100422.00;;;23.90
24639;BMP180;1641;51.306;12.384;2023-08-17T00:42:02;100411.00;;;23.90
24639;BMP180;1641;51.306;12.384;2023-08-17T00:44:27;100409.00;;;23.90
24639;BMP180;1641;51.306;12.384;2023-08-17T00:46:52;100403.00;;;23.80
24639;BMP180;1641;51.306;12.384;2023-08-17T00:49:18;100407.00;;;23.80
24639;BMP180;1641;51.306;12.384;2023-08-17T00:51:43;100407.00;;;23.60
24639;BMP180;1641;51.306;12.384;2023-08-17T00:54:18;100407.00;;;23.70
24639;BMP180;1641;51.306;12.384;2023-08-17T00:56:48;100398.00;;;23.40
24639;BMP180;1641;51.306;12.384;2023-08-17T00:59:16;100397.00;;;23.30
24639;BMP180;1641;51.306;12.384;2023-08-17T01:01:42;100413.00;;;23.50
24639;BMP180;1641;51.306;12.384;2023-08-17T01:04:07;100428.00;;;23.50
24639;BMP180;1641;51.306;12.384;2023-08-17T01:06:33;100403.00;;;23.60
24639;BMP180;1641;51.306;12.384;2023-08-17T01:08:58;100425.00;;;23.90
24639;BMP180;1641;51.306;12.384;2023-08-17T01:11:34;100421.00;;;24.10
24639;BMP180;1641;51.306;12.384;2023-08-17T01:16:54;100423.00;;;23.70
24639;BMP180;1641;51.306;12.384;2023-08-17T01:19:26;100437.00;;;23.80
24639;BMP180;1641;51.306;12.384;2023-08-17T01:22:03;100424.00;;;24.00
24639;BMP180;1641;51.306;12.384;2023-08-17T01:24:32;100416.00;;;24.00
24639;BMP180;1641;51.306;12.384;2023-08-17T01:26:57;100421.00;;;24.00
24639;BMP180;1641;51.306;12.384;2023-08-17T01:29:22;100410.00;;;24.00
24639;BMP180;1641;51.306;12.384;2023-08-17T01:31:57;100409.00;;;24.00
24639;BMP180;1641;51.306;12.384;2023-08-17T01:34:27;100407.00;;;23.70
24639;BMP180;1641;51.306;12.384;2023-08-17T01:36:58;100408.00;;;23.40
24639;BMP180;1641;51.306;12.384;2023-08-17T01:39:27;100409.00;;;23.40
24639;BMP180;1641;51.306;12.384;2023-08-17T01:41:56;100416.00;;;23.00
24639;BMP180;1641;51.306;12.384;2023-08-17T01:44:22;100411.00;;;22.80
24639;BMP180;1641;51.306;12.384;2023-08-17T01:46:48;100416.00;;;22.70
24639;BMP180;1641;51.306;12.384;2023-08-17T01:49:13;100421.00;;;22.80
24639;BMP180;1641;51.306;12.384;2023-08-17T01:51:39;100413.00;;;23.10
24639;BMP180;1641;51.306;12.384;2023-08-17T01:54:04;100432.00;;;23.20
24639;BMP180;1641;51.306;12.384;2023-08-17T01:56:30;100430.00;;;23.20
24639;BMP180;1641;51.306;12.384;2023-08-17T01:58:55;100439.00;;;23.10
24639;BMP180;1641;51.306;12.384;2023-08-17T02:01:20;100493.00;;;22.90
24639;BMP180;1641;51.306;12.384;2023-08-17T02:03:45;100517.00;;;22.80
24639;BMP180;1641;51.306;12.384;2023-08-17T02:06:11;100515.00;;;22.60
24639;BMP180;1641;51.306;12.384;2023-08-17T02:08:37;100515.00;;;22.40
24639;BMP180;1641;51.306;12.384;2023-08-17T02:11:03;100514.00;;;22.60
24639;BMP180;1641;51.306;12.384;2023-08-17T02:13:28;100510.00;;;23.00
24639;BMP180;1641;51.306;12.384;2023-08-17T02:15:53;100515.00;;;23.10
24639;BMP180;1641;51.306;12.384;2023-08-17T02:18:19;100530.00;;;23.10
24639;BMP180;1641;51.306;12.384;2023-08-17T02:20:45;100524.00;;;23.10
24639;BMP180;1641;51.306;12.384;2023-08-17T02:23:10;100523.00;;;23.00
24639;BMP180;1641;51.306;12.384;2023-08-17T02:25:39;100537.00;;;22.90
24639;BMP180;1641;51.306;12.384;2023-08-17T02:28:05;100545.00;;;22.90
24639;BMP180;1641;51.306;12.384;2023-08-17T02:30:31;100544.00;;;22.50
24639;BMP180;1641;51.306;12.384;2023-08-17T02:32:57;100495.00;;;22.30
24639;BMP180;1641;51.306;12.384;2023-08-17T02:35:22;100541.00;;;22.40
24639;BMP180;1641;51.306;12.384;2023-08-17T02:37:48;100522.00;;;22.10
24639;BMP180;1641;51.306;12.384;2023-08-17T02:40:13;100549.00;;;21.90
24639;BMP180;1641;51.306;12.384;2023-08-17T02:42:38;100555.00;;;21.90
24639;BMP180;1641;51.306;12.384;2023-08-17T02:45:08;100554.00;;;21.80
24639;BMP180;1641;51.306;12.384;2023-08-17T02:47:33;100553.00;;;21.70
24639;BMP180;1641;51.306;12.384;2023-08-17T02:49:59;100539.00;;;21.70
24639;BMP180;1641;51.306;12.384;2023-08-17T02:52:24;100549.00;;;21.30
24639;BMP180;1641;51.306;12.384;2023-08-17T02:54:49;100520.00;;;21.50
24639;BMP180;1641;51.306;12.384;2023-08-17T02:57:15;100547.00;;;21.30
24639;BMP180;1641;51.306;12.384;2023-08-17T02:59:40;100545.00;;;21.30
24639;BMP180;1641;51.306;12.384;2023-08-17T03:02:05;100544.00;;;21.20
24639;BMP180;1641;51.306;12.384;2023-08-17T03:04:31;100551.00;;;21.50
24639;BMP180;1641;51.306;12.384;2023-08-17T03:06:56;100560.00;;;21.70
24639;BMP180;1641;51.306;12.384;2023-08-17T03:09:23;100551.00;;;21.90
24639;BMP180;1641;51.306;12.384;2023-08-17T03:11:49;100547.00;;;21.70
24639;BMP180;1641;51.306;12.384;2023-08-17T03:14:14;100544.00;;;21.50
24639;BMP180;1641;51.306;12.384;2023-08-17T03:16:39;100539.00;;;21.70
24639;BMP180;1641;51.306;12.384;2023-08-17T03:19:06;100526.00;;;21.50
24639;BMP180;1641;51.306;12.384;2023-08-17T03:21:33;100514.00;;;21.40
24639;BMP180;1641;51.306;12.384;2023-08-17T03:24:00;100503.00;;;21.40
24639;BMP180;1641;51.306;12.384;2023-08-17T03:26:25;100500.00;;;21.10
24639;BMP180;1641;51.306;12.384;2023-08-17T03:28:50;100499.00;;;21.20
24639;BMP180;1641;51.306;12.384;2023-08-17T03:31:15;100491.00;;;21.10
24639;BMP180;1641;51.306;12.384;2023-08-17T03:33:41;100483.00;;;21.20
24639;BMP180;1641;51.306;12.384;2023-08-17T03:36:07;100491.00;;;21.30
24639;BMP180;1641;51.306;12.384;2023-08-17T03:38:32;100492.00;;;21.50
24639;BMP180;1641;51.306;12.384;2023-08-17T03:40:58;100470.00;;;21.30
24639;BMP180;1641;51.306;12.384;2023-08-17T03:43:23;100470.00;;;21.20
24639;BMP180;1641;51.306;12.384;2023-08-17T03:45:48;100466.00;;;20.90
24639;BMP180;1641;51.306;12.384;2023-08-17T03:48:14;100469.00;;;20.50
24639;BMP180;1641;51.306;12.384;2023-08-17T03:50:39;100434.00;;;20.20
24639;BMP180;1641;51.306;12.384;2023-08-17T03:53:04;100482.00;;;20.20
24639;BMP180;1641;51.306;12.384;2023-08-17T03:55:55;100492.00;;;20.70
24639;BMP180;1641;51.306;12.384;2023-08-17T03:58:20;100491.00;;;20.60
24639;BMP180;1641;51.306;12.384;2023-08-17T04:00:49;100489.00;;;20.70
24639;BMP180;1641;51.306;12.384;2023-08-17T04:03:15;100493.00;;;20.90
24639;BMP180;1641;51.306;12.384;2023-08-17T04:05:41;100516.00;;;20.90
24639;BMP180;1641;51.306;12.384;2023-08-17T04:08:09;100573.00;;;20.70
24639;BMP180;1641;51.306;12.384;2023-08-17T04:10:34;100591.00;;;20.80
24639;BMP180;1641;51.306;12.384;2023-08-17T04:13:00;100577.00;;;20.60
24639;BMP180;1641;51.306;12.384;2023-08-17T04:15:25;100574.00;;;20.60
24639;BMP180;1641;51.306;12.384;2023-08-17T04:17:50;100583.00;;;20.80
24639;BMP180;1641;51.306;12.384;2023-08-17T04:20:16;100577.00;;;21.30
24639;BMP180;1641;51.306;12.384;2023-08-17T04:22:43;100571.00;;;21.50
24639;BMP180;1641;51.306;12.384;2023-08-17T04:25:08;100553.00;;;21.20
24639;BMP180;1641;51.306;12.384;2023-08-17T04:27:34;100524.00;;;21.10
24639;BMP180;1641;51.306;12.384;2023-08-17T04:30:00;100560.00;;;21.00
24639;BMP180;1641;51.306;12.384;2023-08-17T04:32:25;100559.00;;;20.90
24639;BMP180;1641;51.306;12.384;2023-08-17T04:34:50;100561.00;;;20.60
24639;BMP180;1641;51.306;12.384;2023-08-17T04:37:16;100555.00;;;20.40
24639;BMP180;1641;51.306;12.384;2023-08-17T04:39:41;100556.00;;;20.40
24639;BMP180;1641;51.306;12.384;2023-08-17T04:42:08;100537.00;;;20.30
24639;BMP180;1641;51.306;12.384;2023-08-17T04:44:34;100512.00;;;20.30
24639;BMP180;1641;51.306;12.384;2023-08-17T04:46:59;100498.00;;;20.00
24639;BMP180;1641;51.306;12.384;2023-08-17T04:49:24;100502.00;;;20.20
24639;BMP180;1641;51.306;12.384;2023-08-17T04:51:51;100499.00;;;20.00
24639;BMP180;1641;51.306;12.384;2023-08-17T04:54:16;100499.00;;;20.20
24639;BMP180;1641;51.306;12.384;2023-08-17T04:56:41;100498.00;;;20.60
24639;BMP180;1641;51.306;12.384;2023-08-17T04:59:08;100459.00;;;20.60
24639;BMP180;1641;51.306;12.384;2023-08-17T05:01:33;100491.00;;;20.80
24639;BMP180;1641;51.306;12.384;2023-08-17T05:03:58;100487.00;;;20.60
24639;BMP180;1641;51.306;12.384;2023-08-17T05:06:24;100446.00;;;20.80
24639;BMP180;1641;51.306;12.384;2023-08-17T05:08:49;100459.00;;;20.80
24639;BMP180;1641;51.306;12.384;2023-08-17T05:11:14;100463.00;;;20.80
24639;BMP180;1641;51.306;12.384;2023-08-17T05:13:40;100469.00;;;20.70
24639;BMP180;1641;51.306;12.384;2023-08-17T05:16:05;100463.00;;;20.90
24639;BMP180;1641;51.306;12.384;2023-08-17T05:18:30;100454.00;;;21.20
24639;BMP180;1641;51.306;12.384;2023-08-17T05:20:56;100439.00;;;21.20
24639;BMP180;1641;51.306;12.384;2023-08-17T05:23:21;100442.00;;;21.30
24639;BMP180;1641;51.306;12.384;2023-08-17T05:25:47;100439.00;;;21.00
24639;BMP180;1641;51.306;12.384;2023-08-17T05:28:13;100433.00;;;20.80
24639;BMP180;1641;51.306;12.384;2023-08-17T05:30:38;100421.00;;;20.50
24639;BMP180;1641;51.306;12.384;2023-08-17T05:33:04;100427.00;;;20.60
24639;BMP180;1641;51.306;12.384;2023-08-17T05:35:29;100417.00;;;20.70
24639;BMP180;1641;51.306;12.384;2023-08-17T05:37:54;100431.00;;;20.90
24639;BMP180;1641;51.306;12.384;2023-08-17T05:40:20;100429.00;;;20.60
24639;BMP180;1641;51.306;12.384;2023-08-17T05:42:45;100405.00;;;20.70
24639;BMP180;1641;51.306;12.384;2023-08-17T05:45:11;100430.00;;;20.60
24639;BMP180;1641;51.306;12.384;2023-08-17T05:47:36;100430.00;;;20.50
24639;BMP180;1641;51.306;12.384;2023-08-17T05:50:01;100430.00;;;20.70
24639;BMP180;1641;51.306;12.384;2023-08-17T05:52:27;100427.00;;;20.70
24639;BMP180;1641;51.306;12.384;2023-08-17T05:54:52;100398.00;;;20.80
24639;BMP180;1641;51.306;12.384;2023-08-17T05:57:17;100410.00;;;20.90
24639;BMP180;1641;51.306;12.384;2023-08-17T05:59:43;100399.00;;;21.00
24639;BMP180;1641;51.306;12.384;2023-08-17T06:02:08;100402.00;;;20.70
24639;BMP180;1641;51.306;12.384;2023-08-17T06:04:34;100405.00;;;20.90
24639;BMP180;1641;51.306;12.384;2023-08-17T06:06:59;100394.00;;;21.00
24639;BMP180;1641;51.306;12.384;2023-08-17T06:09:24;100394.00;;;21.30
24639;BMP180;1641;51.306;12.384;2023-08-17T06:11:49;100394.00;;;21.40
24639;BMP180;1641;51.306;12.384;2023-08-17T06:14:15;100390.00;;;20.90
24639;BMP180;1641;51.306;12.384;2023-08-17T06:16:40;100394.00;;;21.20
24639;BMP180;1641;51.306;12.384;2023-08-17T06:19:05;100389.00;;;21.00
24639;BMP180;1641;51.306;12.384;2023-08-17T06:21:31;100384.00;;;21.30
24639;BMP180;1641;51.306;12.384;2023-08-17T06:23:56;100390.00;;;21.20
24639;BMP180;1641;51.306;12.384;2023-08-17T06:26:21;100374.00;;;20.80
24639;BMP180;1641;51.306;12.384;2023-08-17T06:28:47;100387.00;;;20.80
24639;BMP180;1641;51.306;12.384;2023-08-17T06:31:14;100384.00;;;21.20
24639;BMP180;1641;51.306;12.384;2023-08-17T06:33:40;100387.00;;;21.30
24639;BMP180;1641;51.306;12.384;2023-08-17T06:36:05;100393.00;;;21.50
24639;BMP180;1641;51.306;12.384;2023-08-17T06:38:30;100399.00;;;21.20
24639;BMP180;1641;51.306;12.384;2023-08-17T06:40:55;100401.00;;;21.80
24639;BMP180;1641;51.306;12.384;2023-08-17T06:43:21;100419.00;;;22.10
24639;BMP180;1641;51.306;12.384;2023-08-17T06:45:46;100432.00;;;22.20
24639;BMP180;1641;51.306;12.384;2023-08-17T06:48:11;100433.00;;;22.40
24639;BMP180;1641;51.306;12.384;2023-08-17T06:50:37;100436.00;;;22.80
24639;BMP180;1641;51.306;12.384;2023-08-17T06:53:04;100442.00;;;23.90
24639;BMP180;1641;51.306;12.384;2023-08-17T06:55:29;100435.00;;;24.80
24639;BMP180;1641;51.306;12.384;2023-08-17T06:57:55;100444.00;;;25.50
24639;BMP180;1641;51.306;12.384;2023-08-17T07:00:20;100463.00;;;26.60
24639;BMP180;1641;51.306;12.384;2023-08-17T07:02:48;100469.00;;;27.20
24639;BMP180;1641;51.306;12.384;2023-08-17T07:05:17;100479.00;;;26.60
24639;BMP180;1641;51.306;12.384;2023-08-17T07:07:43;100486.00;;;25.90
24639;BMP180;1641;51.306;12.384;2023-08-17T07:10:09;100477.00;;;25.50
24639;BMP180;1641;51.306;12.384;2023-08-17T07:12:36;100489.00;;;25.20
24639;BMP180;1641;51.306;12.384;2023-08-17T07:15:02;100490.00;;;24.90
24639;BMP180;1641;51.306;12.384;2023-08-17T07:17:28;100483.00;;;24.00
24639;BMP180;1641;51.306;12.384;2023-08-17T07:19:53;100455.00;;;23.70
24639;BMP180;1641;51.306;12.384;2023-08-17T07:22:19;100450.00;;;23.10
24639;BMP180;1641;51.306;12.384;2023-08-17T07:24:44;100448.00;;;22.90
24639;BMP180;1641;51.306;12.384;2023-08-17T07:27:09;100445.00;;;22.70
24639;BMP180;1641;51.306;12.384;2023-08-17T07:29:38;100427.00;;;22.90
24639;BMP180;1641;51.306;12.384;2023-08-17T07:32:03;100441.00;;;22.90
24639;BMP180;1641;51.306;12.384;2023-08-17T07:34:28;100442.00;;;22.90
24639;BMP180;1641;51.306;12.384;2023-08-17T07:36:56;100431.00;;;23.10
24639;BMP180;1641;51.306;12.384;2023-08-17T07:39:22;100469.00;;;23.20
24639;BMP180;1641;51.306;12.384;2023-08-17T07:41:48;100475.00;;;23.50
24639;BMP180;1641;51.306;12.384;2023-08-17T07:44:13;100474.00;;;23.40
24639;BMP180;1641;51.306;12.384;2023-08-17T07:46:42;100440.00;;;23.50
24639;BMP180;1641;51.306;12.384;2023-08-17T07:49:07;100464.00;;;23.60
24639;BMP180;1641;51.306;12.384;2023-08-17T07:51:32;100463.00;;;23.00
24639;BMP180;1641;51.306;12.384;2023-08-17T07:53:59;100461.00;;;23.00
24639;BMP180;1641;51.306;12.384;2023-08-17T07:56:25;100456.00;;;22.40
24639;BMP180;1641;51.306;12.384;2023-08-17T07:58:50;100452.00;;;22.50
24639;BMP180;1641;51.306;12.384;2023-08-17T08:01:20;100441.00;;;22.40
24639;BMP180;1641;51.306;12.384;2023-08-17T08:03:48;100424.00;;;22.50
24639;BMP180;1641;51.306;12.384;2023-08-17T08:06:13;100450.00;;;22.70
24639;BMP180;1641;51.306;12.384;2023-08-17T08:08:44;100442.00;;;22.50
24639;BMP180;1641;51.306;12.384;2023-08-17T08:11:28;100450.00;;;22.80
24639;BMP180;1641;51.306;12.384;2023-08-17T08:13:58;100453.00;;;23.00
24639;BMP180;1641;51.306;12.384;2023-08-17T08:16:24;100425.00;;;23.50
24639;BMP180;1641;51.306;12.384;2023-08-17T08:18:52;100468.00;;;23.70
24639;BMP180;1641;51.306;12.384;2023-08-17T08:21:20;100441.00;;;24.30
24639;BMP180;1641;51.306;12.384;2023-08-17T08:23:49;100471.00;;;24.50
24639;BMP180;1641;51.306;12.384;2023-08-17T08:26:14;100462.00;;;25.60
24639;BMP180;1641;51.306;12.384;2023-08-17T08:28:39;100454.00;;;26.60
24639;BMP180;1641;51.306;12.384;2023-08-17T08:31:05;100455.00;;;26.60
24639;BMP180;1641;51.306;12.384;2023-08-17T08:33:31;100455.00;;;27.40
24639;BMP180;1641;51.306;12.384;2023-08-17T08:35:56;100444.00;;;28.30
24639;BMP180;1641;51.306;12.384;2023-08-17T08:38:25;100449.00;;;29.10
24639;BMP180;1641;51.306;12.384;2023-08-17T08:40:53;100438.00;;;28.80
24639;BMP180;1641;51.306;12.384;2023-08-17T08:43:19;100454.00;;;28.50
24639;BMP180;1641;51.306;12.384;2023-08-17T08:45:45;100449.00;;;28.80
24639;BMP180;1641;51.306;12.384;2023-08-17T08:48:13;100462.00;;;28.90
24639;BMP180;1641;51.306;12.384;2023-08-17T08:50:40;100464.00;;;28.00
24639;BMP180;1641;51.306;12.384;2023-08-17T08:53:14;100426.00;;;27.00
24639;BMP180;1641;51.306;12.384;2023-08-17T08:56:01;100457.00;;;26.60
24639;BMP180;1641;51.306;12.384;2023-08-17T08:58:34;100459.00;;;24.70
24639;BMP180;1641;51.306;12.384;2023-08-17T09:01:09;100453.00;;;25.30
24639;BMP180;1641;51.306;12.384;2023-08-17T09:03:35;100434.00;;;25.20
24639;BMP180;1641;51.306;12.384;2023-08-17T09:06:00;100459.00;;;25.80
24639;BMP180;1641;51.306;12.384;2023-08-17T09:08:29;100468.00;;;25.00
24639;BMP180;1641;51.306;12.384;2023-08-17T09:10:57;100460.00;;;25.30
24639;BMP180;1641;51.306;12.384;2023-08-17T09:13:22;100458.00;;;25.70
24639;BMP180;1641;51.306;12.384;2023-08-17T09:15:51;100421.00;;;26.10
24639;BMP180;1641;51.306;12.384;2023-08-17T09:18:16;100461.00;;;26.50
24639;BMP180;1641;51.306;12.384;2023-08-17T09:20:45;100473.00;;;26.10
24639;BMP180;1641;51.306;12.384;2023-08-17T09:23:15;100466.00;;;26.70
24639;BMP180;1641;51.306;12.384;2023-08-17T09:25:43;100460.00;;;27.00
24639;BMP180;1641;51.306;12.384;2023-08-17T09:28:09;100451.00;;;27.40
24639;BMP180;1641;51.306;12.384;2023-08-17T09:30:56;100452.00;;;29.10
24639;BMP180;1641;51.306;12.384;2023-08-17T09:33:23;100449.00;;;29.60
24639;BMP180;1641;51.306;12.384;2023-08-17T09:35:53;100457.00;;;28.40
24639;BMP180;1641;51.306;12.384;2023-08-17T09:38:19;100458.00;;;28.40
24639;BMP180;1641;51.306;12.384;2023-08-17T09:40:48;100450.00;;;28.40
24639;BMP180;1641;51.306;12.384;2023-08-17T09:43:14;100445.00;;;29.90
24639;BMP180;1641;51.306;12.384;2023-08-17T09:45:40;100431.00;;;28.60
24639;BMP180;1641;51.306;12.384;2023-08-17T09:48:19;100445.00;;;30.60
24639;BMP180;1641;51.306;12.384;2023-08-17T09:50:48;100437.00;;;30.00
24639;BMP180;1641;51.306;12.384;2023-08-17T09:53:17;100428.00;;;29.70
24639;BMP180;1641;51.306;12.384;2023-08-17T09:55:46;100443.00;;;30.00
24639;BMP180;1641;51.306;12.384;2023-08-17T09:58:12;100436.00;;;30.50
24639;BMP180;1641;51.306;12.384;2023-08-17T10:00:48;100442.00;;;30.90
24639;BMP180;1641;51.306;12.384;2023-08-17T10:03:33;100428.00;;;28.90
24639;BMP180;1641;51.306;12.384;2023-08-17T10:06:04;100438.00;;;28.90
24639;BMP180;1641;51.306;12.384;2023-08-17T10:08:30;100433.00;;;29.20
24639;BMP180;1641;51.306;12.384;2023-08-17T10:11:06;100443.00;;;28.60
24639;BMP180;1641;51.306;12.384;2023-08-17T10:13:41;100430.00;;;28.80
24639;BMP180;1641;51.306;12.384;2023-08-17T10:16:23;100434.00;;;29.10
24639;BMP180;1641;51.306;12.384;2023-08-17T10:18:54;100405.00;;;28.90
24639;BMP180;1641;51.306;12.384;2023-08-17T10:24:34;100428.00;;;27.70
24639;BMP180;1641;51.306;12.384;2023-08-17T10:27:06;100399.00;;;27.70
24639;BMP180;1641;51.306;12.384;2023-08-17T10:29:32;100424.00;;;28.10
24639;BMP180;1641;51.306;12.384;2023-08-17T10:32:00;100418.00;;;27.90
24639;BMP180;1641;51.306;12.384;2023-08-17T10:34:27;100425.00;;;28.10
24639;BMP180;1641;51.306;12.384;2023-08-17T10:36:56;100427.00;;;28.50
24639;BMP180;1641;51.306;12.384;2023-08-17T10:39:25;100429.00;;;28.10
24639;BMP180;1641;51.306;12.384;2023-08-17T10:41:51;100416.00;;;27.50
24639;BMP180;1641;51.306;12.384;2023-08-17T10:44:18;100413.00;;;27.50
24639;BMP180;1641;51.306;12.384;2023-08-17T10:47:23;100410.00;;;27.40
24639;BMP180;1641;51.306;12.384;2023-08-17T10:52:43;100408.00;;;27.40
24639;BMP180;1641;51.306;12.384;2023-08-17T10:55:15;100402.00;;;27.10
24639;BMP180;1641;51.306;12.384;2023-08-17T10:57:43;100402.00;;;27.20
24639;BMP180;1641;51.306;12.384;2023-08-17T11:00:24;100406.00;;;26.30
24639;BMP180;1641;51.306;12.384;2023-08-17T11:03:06;100399.00;;;26.10
24639;BMP180;1641;51.306;12.384;2023-08-17T11:05:51;100395.00;;;26.80
24639;BMP180;1641;51.306;12.384;2023-08-17T11:08:37;100399.00;;;27.10
24639;BMP180;1641;51.306;12.384;2023-08-17T11:11:10;100404.00;;;27.50
24639;BMP180;1641;51.306;12.384;2023-08-17T11:13:45;100396.00;;;27.80
24639;BMP180;1641;51.306;12.384;2023-08-17T11:16:14;100405.00;;;28.30
24639;BMP180;1641;51.306;12.384;2023-08-17T11:18:39;100400.00;;;28.80
24639;BMP180;1641;51.306;12.384;2023-08-17T11:21:07;100397.00;;;27.80
24639;BMP180;1641;51.306;12.384;2023-08-17T11:23:34;100404.00;;;27.70
24639;BMP180;1641;51.306;12.384;2023-08-17T11:26:04;100403.00;;;27.80
24639;BMP180;1641;51.306;12.384;2023-08-17T11:28:36;100410.00;;;28.00
24639;BMP180;1641;51.306;12.384;2023-08-17T11:31:09;100400.00;;;28.70
24639;BMP180;1641;51.306;12.384;2023-08-17T11:33:36;100401.00;;;28.20
24639;BMP180;1641;51.306;12.384;2023-08-17T11:36:22;100380.00;;;28.80
24639;BMP180;1641;51.306;12.384;2023-08-17T11:38:52;100394.00;;;29.10
24639;BMP180;1641;51.306;12.384;2023-08-17T11:41:17;100376.00;;;29.70
24639;BMP180;1641;51.306;12.384;2023-08-17T11:43:45;100390.00;;;28.80
24639;BMP180;1641;51.306;12.384;2023-08-17T11:46:20;100392.00;;;28.60
24639;BMP180;1641;51.306;12.384;2023-08-17T11:48:47;100398.00;;;28.70
24639;BMP180;1641;51.306;12.384;2023-08-17T11:51:13;100388.00;;;28.60
24639;BMP180;1641;51.306;12.384;2023-08-17T11:53:40;100391.00;;;29.00
24639;BMP180;1641;51.306;12.384;2023-08-17T11:56:43;100381.00;;;29.90
24639;BMP180;1641;51.306;12.384;2023-08-17T11:59:13;100375.00;;;29.30
24639;BMP180;1641;51.306;12.384;2023-08-17T12:01:44;100363.00;;;29.20
24639;BMP180;1641;51.306;12.384;2023-08-17T12:04:13;100381.00;;;29.60
24639;BMP180;1641;51.306;12.384;2023-08-17T12:06:44;100379.00;;;29.60
24639;BMP180;1641;51.306;12.384;2023-08-17T12:09:22;100357.00;;;29.40
24639;BMP180;1641;51.306;12.384;2023-08-17T12:11:48;100383.00;;;29.00
24639;BMP180;1641;51.306;12.384;2023-08-17T12:14:13;100373.00;;;28.60
24639;BMP180;1641;51.306;12.384;2023-08-17T12:16:47;100366.00;;;28.60
24639;BMP180;1641;51.306;12.384;2023-08-17T12:19:16;100363.00;;;28.30
24639;BMP180;1641;51.306;12.384;2023-08-17T12:22:02;100362.00;;;28.60
24639;BMP180;1641;51.306;12.384;2023-08-17T12:24:28;100353.00;;;28.80
24639;BMP180;1641;51.306;12.384;2023-08-17T12:26:57;100351.00;;;28.90
24639;BMP180;1641;51.306;12.384;2023-08-17T12:29:22;100354.00;;;28.80
24639;BMP180;1641;51.306;12.384;2023-08-17T12:32:04;100344.00;;;28.80
24639;BMP180;1641;51.306;12.384;2023-08-17T12:34:29;100347.00;;;28.10
24639;BMP180;1641;51.306;12.384;2023-08-17T12:37:00;100321.00;;;28.60
24639;BMP180;1641;51.306;12.384;2023-08-17T12:39:27;100320.00;;;28.70
24639;BMP180;1641;51.306;12.384;2023-08-17T12:41:52;100325.00;;;28.30
24639;BMP180;1641;51.306;12.384;2023-08-17T12:44:17;100325.00;;;28.40
24639;BMP180;1641;51.306;12.384;2023-08-17T12:46:52;100333.00;;;28.40
24639;BMP180;1641;51.306;12.384;2023-08-17T12:49:17;100332.00;;;28.50
24639;BMP180;1641;51.306;12.384;2023-08-17T12:51:43;100326.00;;;28.50
24639;BMP180;1641;51.306;12.384;2023-08-17T12:54:08;100334.00;;;28.70
24639;BMP180;1641;51.306;12.384;2023-08-17T12:56:37;100321.00;;;28.70
24639;BMP180;1641;51.306;12.384;2023-08-17T12:59:05;100335.00;;;28.80
24639;BMP180;1641;51.306;12.384;2023-08-17T13:01:30;100333.00;;;29.00
24639;BMP180;1641;51.306;12.384;2023-08-17T13:03:55;100309.00;;;29.10
24639;BMP180;1641;51.306;12.384;2023-08-17T13:06:21;100321.00;;;28.80
24639;BMP180;1641;51.306;12.384;2023-08-17T13:08:55;100334.00;;;28.70
24639;BMP180;1641;51.306;12.384;2023-08-17T13:11:20;100335.00;;;29.10
24639;BMP180;1641;51.306;12.384;2023-08-17T13:13:48;100330.00;;;28.70
24639;BMP180;1641;51.306;12.384;2023-08-17T13:16:14;100326.00;;;29.30
24639;BMP180;1641;51.306;12.384;2023-08-17T13:18:42;100315.00;;;29.90
24639;BMP180;1641;51.306;12.384;2023-08-17T13:21:10;100312.00;;;30.00
24639;BMP180;1641;51.306;12.384;2023-08-17T13:23:40;100312.00;;;29.90
24639;BMP180;1641;51.306;12.384;2023-08-17T13:26:14;100310.00;;;30.10
24639;BMP180;1641;51.306;12.384;2023-08-17T13:28:43;100305.00;;;30.00
24639;BMP180;1641;51.306;12.384;2023-08-17T13:31:08;100311.00;;;29.50
24639;BMP180;1641;51.306;12.384;2023-08-17T13:33:34;100311.00;;;29.40
24639;BMP180;1641;51.306;12.384;2023-08-17T13:35:59;100313.00;;;29.30
24639;BMP180;1641;51.306;12.384;2023-08-17T13:38:24;100304.00;;;29.30
24639;BMP180;1641;51.306;12.384;2023-08-17T13:40:50;100304.00;;;29.30
24639;BMP180;1641;51.306;12.384;2023-08-17T13:43:15;100301.00;;;29.70
24639;BMP180;1641;51.306;12.384;2023-08-17T13:45:41;100296.00;;;29.80
24639;BMP180;1641;51.306;12.384;2023-08-17T13:48:07;100300.00;;;30.20
24639;BMP180;1641;51.306;12.384;2023-08-17T13:50:34;100295.00;;;29.90
24639;BMP180;1641;51.306;12.384;2023-08-17T13:52:59;100303.00;;;30.00
24639;BMP180;1641;51.306;12.384;2023-08-17T13:55:26;100307.00;;;29.80
24639;BMP180;1641;51.306;12.384;2023-08-17T13:57:51;100298.00;;;29.60
24639;BMP180;1641;51.306;12.384;2023-08-17T14:00:18;100296.00;;;29.70
24639;BMP180;1641;51.306;12.384;2023-08-17T14:02:43;100290.00;;;29.80
24639;BMP180;1641;51.306;12.384;2023-08-17T14:05:08;100276.00;;;29.30
24639;BMP180;1641;51.306;12.384;2023-08-17T14:07:34;100286.00;;;29.40